Rapidan, VA

3:49 PM EDT on July 29, 2016 (GMT -0400)
Locust Dale (Siamese Rescue) | | Change Station

Elev 404 ft 38.35 °N, 78.12 °W | Updated 1 minute ago

Scattered Clouds
Scattered Clouds
88.2 °F
Feels Like 96 °F
N
0.0
Wind Variable Wind from East
Gusts 2.0 mph

Today
High -- | Low -- °F
--% Chance of Precip.
Yesterday
High -- | Low -- °F
Precip. -- in
Pressure 29.91 in
Visibility 10.0 miles
Clouds Scattered Clouds 4400 ft
Heat Index 96 °F
Dew Point 73 °F
Humidity 61%
Rainfall 0.05 in
Snow Depth Not available.
6:12 AM 8:24 PM
Waning Crescent, 19% visible
METAR KCJR 291935Z AUTO 31003KT 10SM SCT044 31/21 A2991 RMK AO2 T03060213
Pressure 29.91 in
Visibility 10.0 miles
Clouds Scattered Clouds 4400 ft
Heat Index 96 °F
Dew Point 73 °F
Humidity 61%
Rainfall 0.05 in
Snow Depth Not available.
6:12 AM 8:24 PM
Waning Crescent, 19% visible
METAR KCJR 291935Z AUTO 31003KT 10SM SCT044 31/21 A2991 RMK AO2 T03060213

10-Day Weather Forecast

Almanac

Astronomy

Jul. 29, 2016 Rise Set
Actual Time
Civil Twilight
Nautical Twilight
Astronomical Twilight
Moon
Length of Visible Light
Length of Day
Tomorrow will be .
, % of the Moon is Illuminated

Today's Extremes

State Highs State Lows

Community

WunderPhotos

Upload Photos

1,928,401 photos uploaded!

WunderBlog® & News

Nearby

Air Quality

  Air Quality AQ Index Pollutant
Not available.

Snow Depth

Station Depth Elevation

Earthquake Activity

City Distance Mag. Time & Date
Minimum magnitude displayed is 2.5.

Coastal Water Temperatures

Place Temperature

Stations

Nearby Weather Stations

Station Location Temp. Windchill Dew Point Humidity Wind Precip. Elev Updated Type
                   

Watches & Warnings

There are currently no watches in effect.